sensor_id;sensor_type;location;lat;lon;timestamp;P1;durP1;ratioP1;P2;durP2;ratioP2
7027;SDS011;3555;53.248;10.336;2023-12-04T00:02:12;25.53;;;13.77;;
7027;SDS011;3555;53.248;10.336;2023-12-04T00:04:39;23.27;;;13.30;;
7027;SDS011;3555;53.248;10.336;2023-12-04T00:07:07;28.80;;;13.00;;
7027;SDS011;3555;53.248;10.336;2023-12-04T00:09:34;25.17;;;12.90;;
7027;SDS011;3555;53.248;10.336;2023-12-04T00:12:01;27.30;;;13.73;;
7027;SDS011;3555;53.248;10.336;2023-12-04T00:14:28;21.13;;;12.47;;
7027;SDS011;3555;53.248;10.336;2023-12-04T00:16:55;23.03;;;12.90;;
7027;SDS011;3555;53.248;10.336;2023-12-04T00:19:22;25.07;;;13.97;;
7027;SDS011;3555;53.248;10.336;2023-12-04T00:21:49;24.50;;;14.03;;
7027;SDS011;3555;53.248;10.336;2023-12-04T00:24:17;24.73;;;13.33;;
7027;SDS011;3555;53.248;10.336;2023-12-04T00:26:44;22.87;;;13.40;;
7027;SDS011;3555;53.248;10.336;2023-12-04T00:29:11;26.57;;;14.50;;
7027;SDS011;3555;53.248;10.336;2023-12-04T00:31:37;29.33;;;14.33;;
7027;SDS011;3555;53.248;10.336;2023-12-04T00:34:05;25.73;;;13.13;;
7027;SDS011;3555;53.248;10.336;2023-12-04T00:36:31;22.80;;;13.37;;
7027;SDS011;3555;53.248;10.336;2023-12-04T00:38:58;28.67;;;14.00;;
7027;SDS011;3555;53.248;10.336;2023-12-04T00:41:27;26.63;;;13.63;;
7027;SDS011;3555;53.248;10.336;2023-12-04T00:43:53;24.00;;;13.83;;
7027;SDS011;3555;53.248;10.336;2023-12-04T00:46:20;29.23;;;14.80;;
7027;SDS011;3555;53.248;10.336;2023-12-04T00:48:47;34.57;;;15.17;;
7027;SDS011;3555;53.248;10.336;2023-12-04T00:51:14;28.70;;;12.53;;
7027;SDS011;3555;53.248;10.336;2023-12-04T00:53:41;28.03;;;14.73;;
7027;SDS011;3555;53.248;10.336;2023-12-04T00:56:08;25.60;;;14.13;;
7027;SDS011;3555;53.248;10.336;2023-12-04T00:58:37;28.43;;;14.07;;
7027;SDS011;3555;53.248;10.336;2023-12-04T01:01:04;31.47;;;14.00;;
7027;SDS011;3555;53.248;10.336;2023-12-04T01:03:32;29.60;;;14.53;;
7027;SDS011;3555;53.248;10.336;2023-12-04T01:05:59;24.10;;;12.60;;
7027;SDS011;3555;53.248;10.336;2023-12-04T01:08:26;30.43;;;14.60;;
7027;SDS011;3555;53.248;10.336;2023-12-04T01:10:52;24.80;;;13.57;;
7027;SDS011;3555;53.248;10.336;2023-12-04T01:13:19;29.73;;;14.43;;
7027;SDS011;3555;53.248;10.336;2023-12-04T01:15:48;28.67;;;14.60;;
7027;SDS011;3555;53.248;10.336;2023-12-04T01:18:15;27.50;;;13.83;;
7027;SDS011;3555;53.248;10.336;2023-12-04T01:20:43;28.60;;;14.50;;
7027;SDS011;3555;53.248;10.336;2023-12-04T01:23:10;30.23;;;14.20;;
7027;SDS011;3555;53.248;10.336;2023-12-04T01:25:37;32.60;;;15.20;;
7027;SDS011;3555;53.248;10.336;2023-12-04T01:28:04;28.07;;;15.17;;
7027;SDS011;3555;53.248;10.336;2023-12-04T01:30:30;27.17;;;15.50;;
7027;SDS011;3555;53.248;10.336;2023-12-04T01:32:59;28.77;;;15.97;;
7027;SDS011;3555;53.248;10.336;2023-12-04T01:35:25;28.50;;;15.43;;
7027;SDS011;3555;53.248;10.336;2023-12-04T01:37:52;33.07;;;15.00;;
7027;SDS011;3555;53.248;10.336;2023-12-04T01:40:19;26.67;;;14.60;;
7027;SDS011;3555;53.248;10.336;2023-12-04T01:42:46;29.73;;;15.63;;
7027;SDS011;3555;53.248;10.336;2023-12-04T01:45:13;28.53;;;14.70;;
7027;SDS011;3555;53.248;10.336;2023-12-04T01:47:40;30.23;;;15.40;;
7027;SDS011;3555;53.248;10.336;2023-12-04T01:50:08;31.20;;;15.73;;
7027;SDS011;3555;53.248;10.336;2023-12-04T01:52:36;31.40;;;14.80;;
7027;SDS011;3555;53.248;10.336;2023-12-04T01:55:03;33.43;;;14.90;;
7027;SDS011;3555;53.248;10.336;2023-12-04T01:57:32;28.90;;;14.73;;
7027;SDS011;3555;53.248;10.336;2023-12-04T01:59:59;29.80;;;14.27;;
7027;SDS011;3555;53.248;10.336;2023-12-04T02:02:26;27.97;;;13.77;;
7027;SDS011;3555;53.248;10.336;2023-12-04T02:04:54;29.37;;;15.17;;
7027;SDS011;3555;53.248;10.336;2023-12-04T02:07:24;28.50;;;14.23;;
7027;SDS011;3555;53.248;10.336;2023-12-04T02:09:51;29.30;;;14.90;;
7027;SDS011;3555;53.248;10.336;2023-12-04T02:12:18;28.00;;;15.40;;
7027;SDS011;3555;53.248;10.336;2023-12-04T02:14:46;34.17;;;16.00;;
7027;SDS011;3555;53.248;10.336;2023-12-04T02:17:13;28.73;;;14.27;;
7027;SDS011;3555;53.248;10.336;2023-12-04T02:19:41;29.63;;;13.70;;
7027;SDS011;3555;53.248;10.336;2023-12-04T02:22:08;30.73;;;14.87;;
7027;SDS011;3555;53.248;10.336;2023-12-04T02:24:36;33.97;;;14.97;;
7027;SDS011;3555;53.248;10.336;2023-12-04T02:27:04;28.30;;;14.43;;
7027;SDS011;3555;53.248;10.336;2023-12-04T02:29:38;32.63;;;14.97;;
7027;SDS011;3555;53.248;10.336;2023-12-04T02:32:08;28.07;;;14.67;;
7027;SDS011;3555;53.248;10.336;2023-12-04T02:34:37;29.17;;;13.77;;
7027;SDS011;3555;53.248;10.336;2023-12-04T02:37:06;28.17;;;13.50;;
7027;SDS011;3555;53.248;10.336;2023-12-04T02:39:37;29.97;;;14.00;;
7027;SDS011;3555;53.248;10.336;2023-12-04T02:42:04;26.83;;;14.37;;
7027;SDS011;3555;53.248;10.336;2023-12-04T02:44:31;30.73;;;15.13;;
7027;SDS011;3555;53.248;10.336;2023-12-04T02:46:58;30.00;;;14.87;;
7027;SDS011;3555;53.248;10.336;2023-12-04T02:49:25;27.87;;;13.77;;
7027;SDS011;3555;53.248;10.336;2023-12-04T02:51:52;25.77;;;13.83;;
7027;SDS011;3555;53.248;10.336;2023-12-04T02:54:19;29.83;;;14.53;;
7027;SDS011;3555;53.248;10.336;2023-12-04T02:56:47;28.50;;;15.23;;
7027;SDS011;3555;53.248;10.336;2023-12-04T02:59:14;32.10;;;14.70;;
7027;SDS011;3555;53.248;10.336;2023-12-04T03:01:41;30.97;;;14.73;;
7027;SDS011;3555;53.248;10.336;2023-12-04T03:04:08;26.70;;;13.43;;
7027;SDS011;3555;53.248;10.336;2023-12-04T03:06:35;27.50;;;15.20;;
7027;SDS011;3555;53.248;10.336;2023-12-04T03:09:02;27.90;;;14.73;;
7027;SDS011;3555;53.248;10.336;2023-12-04T03:11:30;27.70;;;14.47;;
7027;SDS011;3555;53.248;10.336;2023-12-04T03:13:59;28.60;;;13.57;;
7027;SDS011;3555;53.248;10.336;2023-12-04T03:16:26;25.73;;;13.17;;
7027;SDS011;3555;53.248;10.336;2023-12-04T03:18:53;29.40;;;13.73;;
7027;SDS011;3555;53.248;10.336;2023-12-04T03:21:20;24.47;;;12.80;;
7027;SDS011;3555;53.248;10.336;2023-12-04T03:23:47;23.63;;;12.90;;
7027;SDS011;3555;53.248;10.336;2023-12-04T03:26:14;29.93;;;14.43;;
7027;SDS011;3555;53.248;10.336;2023-12-04T03:28:41;24.63;;;13.90;;
7027;SDS011;3555;53.248;10.336;2023-12-04T03:31:09;26.47;;;13.70;;
7027;SDS011;3555;53.248;10.336;2023-12-04T03:33:36;27.47;;;14.00;;
7027;SDS011;3555;53.248;10.336;2023-12-04T03:36:03;23.63;;;12.77;;
7027;SDS011;3555;53.248;10.336;2023-12-04T03:38:31;26.23;;;13.70;;
7027;SDS011;3555;53.248;10.336;2023-12-04T03:40:58;25.33;;;12.67;;
7027;SDS011;3555;53.248;10.336;2023-12-04T03:43:24;23.37;;;13.00;;
7027;SDS011;3555;53.248;10.336;2023-12-04T03:45:51;24.07;;;11.57;;
7027;SDS011;3555;53.248;10.336;2023-12-04T03:48:20;25.13;;;13.67;;
7027;SDS011;3555;53.248;10.336;2023-12-04T03:50:46;28.63;;;13.63;;
7027;SDS011;3555;53.248;10.336;2023-12-04T03:53:13;20.07;;;11.67;;
7027;SDS011;3555;53.248;10.336;2023-12-04T03:55:40;28.70;;;12.60;;
7027;SDS011;3555;53.248;10.336;2023-12-04T03:58:07;23.83;;;12.10;;
7027;SDS011;3555;53.248;10.336;2023-12-04T04:00:34;23.73;;;12.93;;
7027;SDS011;3555;53.248;10.336;2023-12-04T04:03:05;28.57;;;12.63;;
7027;SDS011;3555;53.248;10.336;2023-12-04T04:05:34;23.57;;;12.43;;
7027;SDS011;3555;53.248;10.336;2023-12-04T04:08:01;22.63;;;11.50;;
7027;SDS011;3555;53.248;10.336;2023-12-04T04:10:28;22.53;;;12.63;;
7027;SDS011;3555;53.248;10.336;2023-12-04T04:12:55;22.20;;;11.70;;
7027;SDS011;3555;53.248;10.336;2023-12-04T04:15:21;23.20;;;12.47;;
7027;SDS011;3555;53.248;10.336;2023-12-04T04:17:48;25.63;;;11.97;;
7027;SDS011;3555;53.248;10.336;2023-12-04T04:20:15;22.60;;;12.73;;
7027;SDS011;3555;53.248;10.336;2023-12-04T04:22:44;24.23;;;13.03;;
7027;SDS011;3555;53.248;10.336;2023-12-04T04:25:11;23.83;;;11.87;;
7027;SDS011;3555;53.248;10.336;2023-12-04T04:27:38;21.50;;;12.10;;
7027;SDS011;3555;53.248;10.336;2023-12-04T04:30:05;24.37;;;11.63;;
7027;SDS011;3555;53.248;10.336;2023-12-04T04:32:33;24.80;;;12.80;;
7027;SDS011;3555;53.248;10.336;2023-12-04T04:35:00;23.40;;;12.27;;
7027;SDS011;3555;53.248;10.336;2023-12-04T04:37:28;23.03;;;12.40;;
7027;SDS011;3555;53.248;10.336;2023-12-04T04:39:56;19.87;;;12.03;;
7027;SDS011;3555;53.248;10.336;2023-12-04T04:42:23;21.80;;;11.67;;
7027;SDS011;3555;53.248;10.336;2023-12-04T04:44:50;22.57;;;11.53;;
7027;SDS011;3555;53.248;10.336;2023-12-04T04:47:16;23.63;;;12.50;;
7027;SDS011;3555;53.248;10.336;2023-12-04T04:49:43;19.63;;;10.73;;
7027;SDS011;3555;53.248;10.336;2023-12-04T04:52:10;23.80;;;12.03;;
7027;SDS011;3555;53.248;10.336;2023-12-04T04:54:37;23.40;;;12.73;;
7027;SDS011;3555;53.248;10.336;2023-12-04T04:57:05;24.80;;;12.70;;
7027;SDS011;3555;53.248;10.336;2023-12-04T04:59:33;21.67;;;11.57;;
7027;SDS011;3555;53.248;10.336;2023-12-04T05:02:00;22.63;;;12.20;;
7027;SDS011;3555;53.248;10.336;2023-12-04T05:04:28;24.23;;;12.10;;
7027;SDS011;3555;53.248;10.336;2023-12-04T05:06:54;22.50;;;11.60;;
7027;SDS011;3555;53.248;10.336;2023-12-04T05:09:21;23.27;;;12.50;;
7027;SDS011;3555;53.248;10.336;2023-12-04T05:11:49;22.60;;;11.60;;
7027;SDS011;3555;53.248;10.336;2023-12-04T05:14:17;24.47;;;12.67;;
7027;SDS011;3555;53.248;10.336;2023-12-04T05:16:44;25.93;;;12.90;;
7027;SDS011;3555;53.248;10.336;2023-12-04T05:19:11;21.93;;;11.63;;
7027;SDS011;3555;53.248;10.336;2023-12-04T05:21:38;25.47;;;13.10;;
7027;SDS011;3555;53.248;10.336;2023-12-04T05:24:04;21.83;;;12.67;;
7027;SDS011;3555;53.248;10.336;2023-12-04T05:26:32;23.30;;;12.97;;
7027;SDS011;3555;53.248;10.336;2023-12-04T05:28:59;25.20;;;12.83;;
7027;SDS011;3555;53.248;10.336;2023-12-04T05:31:27;23.20;;;12.80;;
7027;SDS011;3555;53.248;10.336;2023-12-04T05:33:54;24.57;;;12.90;;
7027;SDS011;3555;53.248;10.336;2023-12-04T05:36:21;23.00;;;12.20;;
7027;SDS011;3555;53.248;10.336;2023-12-04T05:38:48;28.43;;;13.70;;
7027;SDS011;3555;53.248;10.336;2023-12-04T05:41:15;23.53;;;13.50;;
7027;SDS011;3555;53.248;10.336;2023-12-04T05:43:41;24.60;;;13.10;;
7027;SDS011;3555;53.248;10.336;2023-12-04T05:46:08;21.90;;;12.63;;
7027;SDS011;3555;53.248;10.336;2023-12-04T05:48:36;25.50;;;13.13;;
7027;SDS011;3555;53.248;10.336;2023-12-04T05:51:04;25.43;;;12.97;;
7027;SDS011;3555;53.248;10.336;2023-12-04T05:53:31;24.67;;;12.13;;
7027;SDS011;3555;53.248;10.336;2023-12-04T05:55:58;22.90;;;13.67;;
7027;SDS011;3555;53.248;10.336;2023-12-04T05:58:24;27.03;;;14.23;;
7027;SDS011;3555;53.248;10.336;2023-12-04T06:00:51;23.93;;;13.17;;
7027;SDS011;3555;53.248;10.336;2023-12-04T06:03:18;27.60;;;13.90;;
7027;SDS011;3555;53.248;10.336;2023-12-04T06:05:46;23.53;;;13.03;;
7027;SDS011;3555;53.248;10.336;2023-12-04T06:08:13;29.90;;;14.07;;
7027;SDS011;3555;53.248;10.336;2023-12-04T06:10:40;27.17;;;14.77;;
7027;SDS011;3555;53.248;10.336;2023-12-04T06:13:07;26.63;;;13.87;;
7027;SDS011;3555;53.248;10.336;2023-12-04T06:15:34;32.13;;;15.70;;
7027;SDS011;3555;53.248;10.336;2023-12-04T06:18:01;33.40;;;14.83;;
7027;SDS011;3555;53.248;10.336;2023-12-04T06:20:28;25.10;;;13.17;;
7027;SDS011;3555;53.248;10.336;2023-12-04T06:22:56;25.87;;;13.33;;
7027;SDS011;3555;53.248;10.336;2023-12-04T06:25:24;24.83;;;13.33;;
7027;SDS011;3555;53.248;10.336;2023-12-04T06:27:51;23.00;;;13.53;;
7027;SDS011;3555;53.248;10.336;2023-12-04T06:30:19;28.43;;;14.77;;
7027;SDS011;3555;53.248;10.336;2023-12-04T06:32:46;29.03;;;13.67;;
7027;SDS011;3555;53.248;10.336;2023-12-04T06:35:14;28.40;;;13.83;;
7027;SDS011;3555;53.248;10.336;2023-12-04T06:37:41;28.30;;;13.40;;
7027;SDS011;3555;53.248;10.336;2023-12-04T06:40:11;30.90;;;15.30;;
7027;SDS011;3555;53.248;10.336;2023-12-04T06:42:39;27.00;;;13.60;;
7027;SDS011;3555;53.248;10.336;2023-12-04T06:45:07;27.00;;;13.27;;
7027;SDS011;3555;53.248;10.336;2023-12-04T06:47:35;27.67;;;14.23;;
7027;SDS011;3555;53.248;10.336;2023-12-04T06:50:03;29.63;;;14.80;;
7027;SDS011;3555;53.248;10.336;2023-12-04T06:52:31;26.07;;;14.37;;
7027;SDS011;3555;53.248;10.336;2023-12-04T06:54:57;26.40;;;14.07;;
7027;SDS011;3555;53.248;10.336;2023-12-04T06:57:26;26.47;;;13.17;;
7027;SDS011;3555;53.248;10.336;2023-12-04T06:59:53;28.23;;;14.20;;
7027;SDS011;3555;53.248;10.336;2023-12-04T07:02:19;27.23;;;13.03;;
7027;SDS011;3555;53.248;10.336;2023-12-04T07:04:46;30.37;;;14.80;;
7027;SDS011;3555;53.248;10.336;2023-12-04T07:07:13;26.17;;;12.40;;
7027;SDS011;3555;53.248;10.336;2023-12-04T07:09:40;25.13;;;12.93;;
7027;SDS011;3555;53.248;10.336;2023-12-04T07:12:07;21.67;;;12.30;;
7027;SDS011;3555;53.248;10.336;2023-12-04T07:14:35;25.13;;;12.73;;
7027;SDS011;3555;53.248;10.336;2023-12-04T07:17:02;27.63;;;14.43;;
7027;SDS011;3555;53.248;10.336;2023-12-04T07:19:29;27.80;;;14.17;;
7027;SDS011;3555;53.248;10.336;2023-12-04T07:21:56;30.70;;;14.40;;
7027;SDS011;3555;53.248;10.336;2023-12-04T07:24:23;26.23;;;13.50;;
7027;SDS011;3555;53.248;10.336;2023-12-04T07:26:51;24.07;;;12.70;;
7027;SDS011;3555;53.248;10.336;2023-12-04T07:29:18;25.33;;;12.33;;
7027;SDS011;3555;53.248;10.336;2023-12-04T07:31:47;24.70;;;13.33;;
7027;SDS011;3555;53.248;10.336;2023-12-04T07:34:14;22.83;;;11.80;;
7027;SDS011;3555;53.248;10.336;2023-12-04T07:36:40;25.20;;;12.60;;
7027;SDS011;3555;53.248;10.336;2023-12-04T07:39:09;22.30;;;11.27;;
7027;SDS011;3555;53.248;10.336;2023-12-04T07:41:36;25.53;;;13.57;;
7027;SDS011;3555;53.248;10.336;2023-12-04T07:44:03;27.63;;;12.83;;
7027;SDS011;3555;53.248;10.336;2023-12-04T07:46:30;22.57;;;12.40;;
7027;SDS011;3555;53.248;10.336;2023-12-04T07:48:58;22.93;;;13.07;;
7027;SDS011;3555;53.248;10.336;2023-12-04T07:51:25;24.00;;;13.17;;
7027;SDS011;3555;53.248;10.336;2023-12-04T07:53:52;25.80;;;12.90;;
7027;SDS011;3555;53.248;10.336;2023-12-04T07:56:19;25.23;;;13.50;;
7027;SDS011;3555;53.248;10.336;2023-12-04T07:58:46;23.90;;;12.40;;
7027;SDS011;3555;53.248;10.336;2023-12-04T08:01:13;26.73;;;13.13;;
7027;SDS011;3555;53.248;10.336;2023-12-04T08:03:40;24.13;;;13.10;;
7027;SDS011;3555;53.248;10.336;2023-12-04T08:06:09;24.70;;;12.83;;
7027;SDS011;3555;53.248;10.336;2023-12-04T08:08:36;28.73;;;14.33;;
7027;SDS011;3555;53.248;10.336;2023-12-04T08:11:03;27.70;;;14.23;;
7027;SDS011;3555;53.248;10.336;2023-12-04T08:13:30;24.43;;;13.30;;
7027;SDS011;3555;53.248;10.336;2023-12-04T08:15:57;24.87;;;13.90;;
7027;SDS011;3555;53.248;10.336;2023-12-04T08:18:25;28.40;;;14.37;;
7027;SDS011;3555;53.248;10.336;2023-12-04T08:20:52;26.23;;;12.93;;
7027;SDS011;3555;53.248;10.336;2023-12-04T08:23:20;26.47;;;13.57;;
7027;SDS011;3555;53.248;10.336;2023-12-04T08:25:47;26.93;;;14.13;;
7027;SDS011;3555;53.248;10.336;2023-12-04T08:28:14;25.77;;;13.20;;
7027;SDS011;3555;53.248;10.336;2023-12-04T08:30:41;24.63;;;13.37;;
7027;SDS011;3555;53.248;10.336;2023-12-04T08:33:08;27.40;;;13.00;;
7027;SDS011;3555;53.248;10.336;2023-12-04T08:35:35;26.17;;;13.33;;
7027;SDS011;3555;53.248;10.336;2023-12-04T08:38:01;25.97;;;13.33;;
7027;SDS011;3555;53.248;10.336;2023-12-04T08:40:30;28.07;;;13.00;;
7027;SDS011;3555;53.248;10.336;2023-12-04T08:42:57;26.70;;;12.27;;
7027;SDS011;3555;53.248;10.336;2023-12-04T08:45:23;27.00;;;13.90;;
7027;SDS011;3555;53.248;10.336;2023-12-04T08:47:51;24.83;;;12.97;;
7027;SDS011;3555;53.248;10.336;2023-12-04T08:50:18;29.47;;;13.97;;
7027;SDS011;3555;53.248;10.336;2023-12-04T08:52:45;29.00;;;13.93;;
7027;SDS011;3555;53.248;10.336;2023-12-04T08:55:12;23.70;;;12.87;;
7027;SDS011;3555;53.248;10.336;2023-12-04T08:57:40;23.47;;;12.70;;
7027;SDS011;3555;53.248;10.336;2023-12-04T09:00:08;26.27;;;12.57;;
7027;SDS011;3555;53.248;10.336;2023-12-04T09:02:35;26.70;;;13.83;;
7027;SDS011;3555;53.248;10.336;2023-12-04T09:05:02;24.03;;;14.17;;
7027;SDS011;3555;53.248;10.336;2023-12-04T09:07:30;26.53;;;13.60;;
7027;SDS011;3555;53.248;10.336;2023-12-04T09:09:56;27.87;;;14.70;;
7027;SDS011;3555;53.248;10.336;2023-12-04T09:12:24;27.03;;;13.37;;
7027;SDS011;3555;53.248;10.336;2023-12-04T09:14:52;27.57;;;13.97;;
7027;SDS011;3555;53.248;10.336;2023-12-04T09:17:19;29.47;;;14.43;;
7027;SDS011;3555;53.248;10.336;2023-12-04T09:19:46;26.13;;;12.90;;
7027;SDS011;3555;53.248;10.336;2023-12-04T09:22:13;25.93;;;14.50;;
7027;SDS011;3555;53.248;10.336;2023-12-04T09:24:40;22.43;;;12.93;;
7027;SDS011;3555;53.248;10.336;2023-12-04T09:27:07;23.53;;;13.43;;
7027;SDS011;3555;53.248;10.336;2023-12-04T09:29:34;25.37;;;13.37;;
7027;SDS011;3555;53.248;10.336;2023-12-04T09:32:02;28.57;;;13.30;;
7027;SDS011;3555;53.248;10.336;2023-12-04T09:34:29;23.87;;;13.37;;
7027;SDS011;3555;53.248;10.336;2023-12-04T09:36:56;26.97;;;13.77;;
7027;SDS011;3555;53.248;10.336;2023-12-04T09:39:23;24.63;;;12.73;;
7027;SDS011;3555;53.248;10.336;2023-12-04T09:41:50;26.73;;;14.30;;
7027;SDS011;3555;53.248;10.336;2023-12-04T09:44:17;25.40;;;14.00;;
7027;SDS011;3555;53.248;10.336;2023-12-04T09:46:44;21.10;;;12.47;;
7027;SDS011;3555;53.248;10.336;2023-12-04T09:49:13;21.53;;;11.90;;
7027;SDS011;3555;53.248;10.336;2023-12-04T09:51:41;20.10;;;12.43;;
7027;SDS011;3555;53.248;10.336;2023-12-04T09:54:08;21.37;;;12.30;;
7027;SDS011;3555;53.248;10.336;2023-12-04T09:56:35;21.00;;;12.77;;
7027;SDS011;3555;53.248;10.336;2023-12-04T09:59:04;22.47;;;12.43;;
7027;SDS011;3555;53.248;10.336;2023-12-04T10:01:33;24.30;;;11.70;;
7027;SDS011;3555;53.248;10.336;2023-12-04T10:04:02;18.37;;;11.67;;
7027;SDS011;3555;53.248;10.336;2023-12-04T10:06:32;18.57;;;11.07;;
7027;SDS011;3555;53.248;10.336;2023-12-04T10:09:01;18.27;;;11.23;;
7027;SDS011;3555;53.248;10.336;2023-12-04T10:11:28;22.33;;;11.40;;
7027;SDS011;3555;53.248;10.336;2023-12-04T10:13:55;20.10;;;11.57;;
7027;SDS011;3555;53.248;10.336;2023-12-04T10:16:32;20.77;;;11.60;;
7027;SDS011;3555;53.248;10.336;2023-12-04T10:19:16;21.27;;;12.40;;
7027;SDS011;3555;53.248;10.336;2023-12-04T10:21:45;20.60;;;12.20;;
7027;SDS011;3555;53.248;10.336;2023-12-04T10:24:14;20.33;;;11.10;;
7027;SDS011;3555;53.248;10.336;2023-12-04T10:26:58;20.57;;;11.87;;
7027;SDS011;3555;53.248;10.336;2023-12-04T10:29:26;18.30;;;11.27;;
7027;SDS011;3555;53.248;10.336;2023-12-04T10:31:55;19.63;;;11.90;;
7027;SDS011;3555;53.248;10.336;2023-12-04T10:34:24;21.97;;;12.57;;
7027;SDS011;3555;53.248;10.336;2023-12-04T10:36:53;22.90;;;12.43;;
7027;SDS011;3555;53.248;10.336;2023-12-04T10:39:23;19.87;;;11.37;;
7027;SDS011;3555;53.248;10.336;2023-12-04T10:42:00;19.90;;;11.53;;
7027;SDS011;3555;53.248;10.336;2023-12-04T10:44:28;17.90;;;11.00;;
7027;SDS011;3555;53.248;10.336;2023-12-04T10:46:57;20.13;;;11.93;;
7027;SDS011;3555;53.248;10.336;2023-12-04T10:49:26;19.47;;;11.47;;
7027;SDS011;3555;53.248;10.336;2023-12-04T10:51:56;20.40;;;11.67;;
7027;SDS011;3555;53.248;10.336;2023-12-04T10:54:25;19.63;;;11.67;;
7027;SDS011;3555;53.248;10.336;2023-12-04T10:56:52;18.03;;;11.43;;
7027;SDS011;3555;53.248;10.336;2023-12-04T10:59:21;18.33;;;11.40;;
7027;SDS011;3555;53.248;10.336;2023-12-04T11:01:53;18.83;;;11.60;;
7027;SDS011;3555;53.248;10.336;2023-12-04T11:04:22;19.13;;;10.70;;
7027;SDS011;3555;53.248;10.336;2023-12-04T11:06:52;19.97;;;11.80;;
7027;SDS011;3555;53.248;10.336;2023-12-04T11:09:22;19.10;;;11.23;;
7027;SDS011;3555;53.248;10.336;2023-12-04T11:11:53;18.57;;;10.53;;
7027;SDS011;3555;53.248;10.336;2023-12-04T11:14:24;18.30;;;11.07;;
7027;SDS011;3555;53.248;10.336;2023-12-04T11:16:57;18.07;;;10.70;;
7027;SDS011;3555;53.248;10.336;2023-12-04T11:19:28;19.27;;;11.10;;
7027;SDS011;3555;53.248;10.336;2023-12-04T11:21:58;17.87;;;11.00;;
7027;SDS011;3555;53.248;10.336;2023-12-04T11:24:27;19.70;;;10.77;;
7027;SDS011;3555;53.248;10.336;2023-12-04T11:26:54;17.63;;;10.87;;
7027;SDS011;3555;53.248;10.336;2023-12-04T11:29:22;19.03;;;11.13;;
7027;SDS011;3555;53.248;10.336;2023-12-04T11:31:50;17.37;;;10.80;;
7027;SDS011;3555;53.248;10.336;2023-12-04T11:34:17;17.83;;;10.80;;
7027;SDS011;3555;53.248;10.336;2023-12-04T11:36:44;17.70;;;10.80;;
7027;SDS011;3555;53.248;10.336;2023-12-04T11:39:11;16.33;;;9.53;;
7027;SDS011;3555;53.248;10.336;2023-12-04T11:41:39;17.70;;;10.53;;
7027;SDS011;3555;53.248;10.336;2023-12-04T11:44:11;20.50;;;11.07;;
7027;SDS011;3555;53.248;10.336;2023-12-04T11:46:39;18.20;;;10.50;;
7027;SDS011;3555;53.248;10.336;2023-12-04T11:49:27;21.43;;;10.30;;
7027;SDS011;3555;53.248;10.336;2023-12-04T11:51:55;17.37;;;10.60;;
7027;SDS011;3555;53.248;10.336;2023-12-04T11:54:21;15.93;;;9.77;;
7027;SDS011;3555;53.248;10.336;2023-12-04T11:56:59;16.90;;;9.07;;
7027;SDS011;3555;53.248;10.336;2023-12-04T11:59:27;19.37;;;10.50;;
7027;SDS011;3555;53.248;10.336;2023-12-04T12:01:54;18.87;;;10.83;;
7027;SDS011;3555;53.248;10.336;2023-12-04T12:04:22;15.10;;;9.30;;
7027;SDS011;3555;53.248;10.336;2023-12-04T12:06:49;15.77;;;9.87;;
7027;SDS011;3555;53.248;10.336;2023-12-04T12:09:17;18.23;;;10.27;;
7027;SDS011;3555;53.248;10.336;2023-12-04T12:11:44;16.20;;;8.90;;
7027;SDS011;3555;53.248;10.336;2023-12-04T12:14:12;19.73;;;10.60;;
7027;SDS011;3555;53.248;10.336;2023-12-04T12:16:40;16.90;;;9.37;;
7027;SDS011;3555;53.248;10.336;2023-12-04T12:19:07;18.47;;;10.07;;
7027;SDS011;3555;53.248;10.336;2023-12-04T12:21:34;16.37;;;9.57;;
7027;SDS011;3555;53.248;10.336;2023-12-04T12:24:00;15.33;;;9.97;;
7027;SDS011;3555;53.248;10.336;2023-12-04T12:26:28;16.60;;;10.10;;
7027;SDS011;3555;53.248;10.336;2023-12-04T12:28:55;15.30;;;9.80;;
7027;SDS011;3555;53.248;10.336;2023-12-04T12:31:24;14.47;;;9.63;;
7027;SDS011;3555;53.248;10.336;2023-12-04T12:33:51;19.80;;;10.40;;
7027;SDS011;3555;53.248;10.336;2023-12-04T12:36:18;16.53;;;9.50;;
7027;SDS011;3555;53.248;10.336;2023-12-04T12:38:45;15.93;;;9.40;;
7027;SDS011;3555;53.248;10.336;2023-12-04T12:41:15;16.07;;;9.70;;
7027;SDS011;3555;53.248;10.336;2023-12-04T12:43:42;14.13;;;8.87;;
7027;SDS011;3555;53.248;10.336;2023-12-04T12:46:09;17.20;;;10.03;;
7027;SDS011;3555;53.248;10.336;2023-12-04T12:48:37;15.83;;;9.90;;
7027;SDS011;3555;53.248;10.336;2023-12-04T12:51:05;15.77;;;9.53;;
7027;SDS011;3555;53.248;10.336;2023-12-04T12:53:36;14.63;;;9.10;;
7027;SDS011;3555;53.248;10.336;2023-12-04T12:56:03;11.60;;;7.80;;
7027;SDS011;3555;53.248;10.336;2023-12-04T12:58:31;15.13;;;10.03;;
7027;SDS011;3555;53.248;10.336;2023-12-04T13:00:59;16.20;;;9.73;;
7027;SDS011;3555;53.248;10.336;2023-12-04T13:03:27;15.93;;;9.47;;
7027;SDS011;3555;53.248;10.336;2023-12-04T13:05:57;15.40;;;8.67;;
7027;SDS011;3555;53.248;10.336;2023-12-04T13:08:24;15.90;;;9.77;;
7027;SDS011;3555;53.248;10.336;2023-12-04T13:10:51;14.17;;;8.87;;
7027;SDS011;3555;53.248;10.336;2023-12-04T13:13:18;15.20;;;8.33;;
7027;SDS011;3555;53.248;10.336;2023-12-04T13:15:44;17.67;;;9.90;;
7027;SDS011;3555;53.248;10.336;2023-12-04T13:18:11;15.57;;;9.93;;
7027;SDS011;3555;53.248;10.336;2023-12-04T13:20:38;17.83;;;9.47;;
7027;SDS011;3555;53.248;10.336;2023-12-04T13:23:06;16.40;;;9.37;;
7027;SDS011;3555;53.248;10.336;2023-12-04T13:25:34;17.97;;;10.17;;
7027;SDS011;3555;53.248;10.336;2023-12-04T13:28:00;16.40;;;9.50;;
7027;SDS011;3555;53.248;10.336;2023-12-04T13:30:27;18.27;;;9.63;;
7027;SDS011;3555;53.248;10.336;2023-12-04T13:32:54;16.27;;;9.30;;
7027;SDS011;3555;53.248;10.336;2023-12-04T13:35:21;14.93;;;9.03;;
7027;SDS011;3555;53.248;10.336;2023-12-04T13:37:48;16.43;;;10.00;;
7027;SDS011;3555;53.248;10.336;2023-12-04T13:40:21;14.23;;;8.73;;
7027;SDS011;3555;53.248;10.336;2023-12-04T13:42:51;14.20;;;8.73;;
7027;SDS011;3555;53.248;10.336;2023-12-04T13:45:40;17.60;;;9.33;;
7027;SDS011;3555;53.248;10.336;2023-12-04T13:48:07;15.17;;;9.80;;
7027;SDS011;3555;53.248;10.336;2023-12-04T13:50:34;16.23;;;9.37;;
7027;SDS011;3555;53.248;10.336;2023-12-04T13:53:01;16.33;;;9.90;;
7027;SDS011;3555;53.248;10.336;2023-12-04T13:55:29;15.50;;;9.40;;
7027;SDS011;3555;53.248;10.336;2023-12-04T13:58:12;16.97;;;10.00;;
7027;SDS011;3555;53.248;10.336;2023-12-04T14:01:04;14.03;;;9.03;;
7027;SDS011;3555;53.248;10.336;2023-12-04T14:03:38;14.87;;;9.33;;
7027;SDS011;3555;53.248;10.336;2023-12-04T14:06:06;14.77;;;9.47;;
7027;SDS011;3555;53.248;10.336;2023-12-04T14:08:33;17.87;;;10.07;;
7027;SDS011;3555;53.248;10.336;2023-12-04T14:11:00;16.00;;;10.13;;
7027;SDS011;3555;53.248;10.336;2023-12-04T14:13:27;16.63;;;10.20;;
7027;SDS011;3555;53.248;10.336;2023-12-04T14:15:54;15.53;;;9.17;;
7027;SDS011;3555;53.248;10.336;2023-12-04T14:18:22;14.73;;;9.33;;
7027;SDS011;3555;53.248;10.336;2023-12-04T14:20:50;15.40;;;9.30;;
7027;SDS011;3555;53.248;10.336;2023-12-04T14:23:17;13.93;;;8.73;;
7027;SDS011;3555;53.248;10.336;2023-12-04T14:25:45;14.40;;;8.50;;
7027;SDS011;3555;53.248;10.336;2023-12-04T14:28:13;18.40;;;10.30;;
7027;SDS011;3555;53.248;10.336;2023-12-04T14:30:39;16.83;;;9.60;;
7027;SDS011;3555;53.248;10.336;2023-12-04T14:33:06;15.83;;;9.27;;
7027;SDS011;3555;53.248;10.336;2023-12-04T14:35:35;18.83;;;8.67;;
7027;SDS011;3555;53.248;10.336;2023-12-04T14:38:02;14.37;;;8.80;;
7027;SDS011;3555;53.248;10.336;2023-12-04T14:40:29;14.63;;;8.37;;